ADDS METAR Data INFO
IDs: Format: Raw Decoded Include TAF

Data at: 1956 UTC 15 Dec 2017

PATE 151856Z AUTO 11013KT 10SM CLR M11/M14 A2942 RMK AO2 SLP970 T11111139 FZRANO
PATE 151756Z AUTO 11011KT 10SM CLR M11/M14 A2944 RMK AO2 SLP978 T11111139 11072 21111 58020 FZRANO
PATE 151656Z AUTO 11009KT 10SM CLR M11/M13 A2946 RMK AO2 SLP984 T11111133 FZRANO
PATE 151556Z AUTO 10007KT 10SM CLR M11/M13 A2948 RMK AO2 SLP992 T11061133 FZRANO
PATE 151456Z AUTO 10009KT 10SM CLR M11/M13 A2950 RMK AO2 SLP998 T11061133 56013 FZRANO
PATE 151356Z AUTO 09007KT 10SM CLR M08/M10 A2951 RMK AO2 SLP002 T10831100 FZRANO
PATE 151256Z AUTO 06004KT 10SM OVC032 M08/M10 A2952 RMK AO2 SLP005 T10781100 FZRANO
PATE 151156Z AUTO 12003KT 10SM OVC034 M08/M11 A2954 RMK AO2 SLP012 60000 70001 T10781106 11056 21083 50002 FZRANO
PATE 151056Z AUTO 14007KT 10SM OVC038 M08/M11 A2954 RMK AO2 SLP012 T10781111 FZRANO
PATE 150956Z AUTO 14009KT 10SM BKN040 M08/M10 A2954 RMK AO2 SLP011 T10781100 FZRANO
PATE 150856Z AUTO 19011KT 10SM OVC040 M07/M08 A2953 RMK AO2 SLP009 60000 T10671083 410171067 52004 FZRANO
PATE 150756Z AUTO 18016KT 10SM FEW026 OVC042 M06/M08 A2953 RMK AO2 SNE23 SLP007 P0000 T10611078 FZRANO
PATE 150705Z AUTO 21011KT 9SM -SN FEW016 BKN035 OVC041 M06/M07 A2953 RMK AO2 P0000 FZRANO
PATE 150656Z AUTO 20011KT 9SM -SN SCT016 BKN022 OVC035 M06/M07 A2953 RMK AO2 SLP006 P0000 T10611072 FZRANO
PATE 150639Z AUTO 20012KT 9SM -SN FEW008 BKN016 OVC021 M06/M07 A2952 RMK AO2 P0000 FZRANO
PATE 150627Z AUTO 20010KT 9SM -SN SCT008 BKN014 OVC022 M06/M07 A2952 RMK AO2 P0000 FZRANO
PATE 150556Z AUTO 19005KT 9SM -SN FEW007 BKN021 OVC046 M06/M07 A2952 RMK AO2 SLP005 P0000 60000 T10561067 11050 21056 51006 FZRANO
PATE 150551Z AUTO 19006KT 3SM -SN BR SCT009 BKN015 OVC044 M06/M07 A2952 RMK AO2 P0000 FZRANO
PATE 150519Z AUTO 19005KT 1 1/4SM -SN BR FEW008 BKN015 OVC048 M06/M07 A2952 RMK AO2 P0000 FZRANO
PATE 150512Z AUTO 20006KT 1 3/4SM -SN BR FEW010 SCT015 OVC048 M06/M07 A2952 RMK AO2 VIS 1V5 P0000 FZRANO
PATE 150456Z AUTO 21006KT 8SM -SN OVC048 M06/M07 A2952 RMK AO2 SLP003 P0000 T10561072 FZRANO
PATE 150356Z AUTO 18004KT 9SM -SN OVC048 M06/M07 A2951 RMK AO2 SLP002 P0000 T10561072 FZRANO
PATE 150256Z AUTO 18005KT 9SM -SN OVC050 M06/M07 A2950 RMK AO2 SLP999 P0000 60000 T10561067 51007 FZRANO
PATE 150156Z AUTO 19014KT 9SM -SN FEW016 OVC050 M05/M07 A2950 RMK AO2 SLP996 P0000 T10501067 FZRANO
PATE 150117Z AUTO 19010KT 8SM -SN FEW021 BKN050 M05/M07 A2950 RMK AO2 P0000 FZRANO
PATE 150056Z AUTO 18014KT 9SM -SN BKN015 OVC021 M05/M07 A2949 RMK AO2 SLP995 P0000 T10501067 FZRANO
PATE 150023Z AUTO 19017KT 3SM -SN BR BKN015 BKN022 OVC050 M05/M07 A2949 RMK AO2 P0000 FZRANO
PATE 150016Z AUTO 19017KT 2 1/2SM -SN BR SCT015 BKN022 OVC050 M06/M07 A2949 RMK AO2 P0000 FZRANO
PATE 150008Z AUTO 19018KT 1 3/4SM -SN BR FEW015 BKN020 BKN050 M06/M07 A2949 RMK AO2 P0000 FZRANO
PATE 150004Z AUTO 18018KT 2 1/2SM -SN BR SCT020 BKN040 BKN050 M06/M07 A2949 RMK AO2 P0000 FZRANO
PATE 142356Z AUTO 18020KT 5SM -SN BR BKN020 BKN025 OVC050 M06/M07 A2948 RMK AO2 SLP991 P0000 60001 T10561072 11039 21056 53000 FZRANO
PATE 142335Z AUTO 18020KT 8SM -SN FEW012 BKN024 OVC037 M06/M07 A2948 RMK AO2 P0000 FZRANO
PATE 142327Z AUTO 18020KT 2SM -SN BR FEW012 BKN024 OVC046 M06/M07 A2948 RMK AO2 P0000 FZRANO
PATE 142316Z AUTO 18020KT 4SM -SN BR FEW014 BKN024 OVC040 M06/M07 A2948 RMK AO2 P0000 FZRANO
PATE 142309Z AUTO 19020KT 5SM -SN BR SCT017 BKN035 OVC042 M06/M07 A2948 RMK AO2 P0000 FZRANO
PATE 142256Z AUTO 19020KT 6SM -SN BR SCT015 BKN021 OVC036 M06/M07 A2947 RMK AO2 SLP988 P0001 T10561067 FZRANO
PATE 142242Z AUTO 19019KT 3SM -SN BR FEW008 OVC015 M06/M06 A2947 RMK AO2 P0001 FZRANO
PATE 142234Z AUTO 19020G23KT 1 1/4SM -SN BR SCT009 OVC015 M06/M06 A2947 RMK AO2 P0001 FZRANO
PATE 142226Z AUTO 19019G23KT 1SM -SN BR FEW004 SCT007 OVC013 M05/M06 A2948 RMK AO2 P0001 FZRANO
PATE 142210Z AUTO 20017KT 1/2SM -SN FZFG SCT004 BKN012 OVC016 M04/M05 A2948 RMK AO2 P0000 FZRANO
PATE 142207Z AUTO 20010KT 1SM -SN BR FEW004 OVC012 M04/M05 A2948 RMK AO2 P0000 FZRANO
PATE 142204Z AUTO 19007KT 2 1/2SM -SN BR FEW004 BKN012 OVC018 M04/M05 A2948 RMK AO2 VIS 1 1/4V5 P0000 FZRANO
PATE 142200Z AUTO 22006KT 3SM -SN BR OVC015 M04/M05 A2948 RMK AO2 P0000 FZRANO
PATE 142156Z AUTO 22005KT 1 3/4SM -SN BR OVC015 M04/M05 A2948 RMK AO2 VIS 1V4 SLP991 P0000 T10441050 FZRANO
PATE 142132Z AUTO 22007KT 2SM -SN BR OVC017 M04/M05 A2948 RMK AO2 P0000 FZRANO
PATE 142124Z AUTO 22007KT 1SM -SN BR FEW004 BKN017 OVC022 M04/M05 A2948 RMK AO2 P0000 FZRANO
PATE 142117Z AUTO 22007KT 1SM -SN BR BKN014 OVC021 M04/M05 A2948 RMK AO2 P0000 FZRANO
PATE 142111Z AUTO 23007KT 1 3/4SM -SN BR BKN016 OVC021 M04/M05 A2948 RMK AO2 P0000 FZRANO
PATE 142103Z AUTO 23007KT 2 1/2SM -SN BR FEW005 BKN014 OVC021 M04/M05 A2948 RMK AO2 VIS 1 3/4V5 P0000 FZRANO
PATE 142056Z AUTO 24007KT 1 3/4SM -SN BR FEW005 OVC014 M04/M05 A2948 RMK AO2 UPE1954B14E31SNB1954E14B31 SLP990 P0000 60000 T10441050 53005 FZRANO
PATE 142047Z AUTO 25009KT 1 1/4SM -SN BR SCT005 BKN014 OVC018 M04/M04 A2948 RMK AO2 UPE1954B14E31SNB1954E14B31 P0000 FZRANO
PATE 142035Z AUTO 24009KT 1 1/2SM -SN BR SCT005 BKN009 OVC016 M04/M04 A2948 RMK AO2 UPE1954B14E31SNB1954E14B31 CIG 007V013 P0000 FZRANO
PATE 142030Z AUTO 23009KT 2 1/2SM UP BR BKN005 OVC011 M04/M04 A2948 RMK AO2 UPE1954B14SNB1954E14 CIG 003V009 P0000 FZRANO
PATE 142024Z AUTO 24009KT 5SM UP BR SCT005 BKN011 OVC016 M04/M04 A2948 RMK AO2 UPE1954B14SNB1954E14 P0000 FZRANO
PATE 142019Z AUTO 24009KT 3SM UP BR BKN005 BKN009 OVC014 M04/M04 A2948 RMK AO2 UPE1954B14SNB1954E14 CIG 003V007 P0000 FZRANO
PATE 142012Z AUTO 23009KT 2SM -SN BR BKN007 OVC011 M04/M04 A2947 RMK AO2 UPE1954SNB1954 CIG 003V010 P0000 FZRANO
PATE 142007Z AUTO 22008KT 1 3/4SM -SN BR BKN005 BKN009 OVC013 M04/M04 A2948 RMK AO2 UPE1954SNB1954 CIG 003V008 P0000 FZRANO
PATE 142000Z AUTO 22008KT 2SM -SN BR SCT003 BKN009 OVC013 M04/M04 A2947 RMK AO2 UPE1954SNB1954 P0000 FZRANO
PATE 141953Z AUTO 21007KT 3SM UP BR BKN003 OVC011 M04/M04 A2947 RMK AO2 UPB09E13B29SNE09B13E29B33E47 CIG 002V008 SLP988 P0000 T10391044 FZRANO
PATE 141952Z AUTO 21007KT 4SM UP BR BKN003 OVC011 M04/M04 A2947 RMK AO2 UPB09E13B29SNE09B13E29B33E47 CIG 002V008 P0000 FZRANO
PATE 141946Z AUTO 22007KT 5SM -SN BR SCT005 OVC013 M04/M04 A2947 RMK AO2 UPB09E13B29E33SNE09B13E29B33 P0000 FZRANO
PATE 141944Z AUTO 22007KT 4SM -SN BR BKN005 OVC013 M04/M04 A2947 RMK AO2 UPB09E13B29E33SNE09B13E29B33 CIG 002V008 P0000 FZRANO
PATE 141940Z AUTO 23007KT 2 1/2SM -SN BR BKN003 BKN007 OVC013 M04/M04 A2947 RMK AO2 UPB09E13B29E33SNE09B13E29B33 CIG 002V007 P0000 FZRANO
PATE 141928Z AUTO 22008KT 2 1/2SM -SN BR SCT003 BKN009 OVC015 M04/M04 A2947 RMK AO2 UPB09E13SNE09B13 CIG 007V011 P0000 FZRANO
PATE 141920Z AUTO 23009KT 2SM -SN BR BKN005 OVC013 M04/M04 A2947 RMK AO2 UPB09E13SNE09B13 CIG 002V008 P0000 FZRANO
PATE 141914Z AUTO 22008KT 2 1/2SM -SN BR SCT005 OVC013 M04/M04 A2947 RMK AO2 UPB09E13SNE09B13 P0000 FZRANO
PATE 141908Z AUTO 22009KT 3SM -SN BR BKN007 OVC014 M04/M04 A2947 RMK AO2 CIG 003V010 P0000 FZRANO
PATE 141856Z AUTO 23010KT 2 1/2SM -SN BR BKN005 OVC011 M04/M04 A2947 RMK AO2 VIS 1 3/4V4 CIG 003V009 SLP985 P0000 T10391044 FZRANO
PATE 141848Z AUTO 23010KT 2SM -SN BR BKN005 OVC011 M04/M04 A2947 RMK AO2 CIG 003V007 P0000 FZRANO
PATE 141837Z AUTO 24010KT 1 3/4SM -SN BR BKN005 OVC011 M03/M04 A2947 RMK AO2 CIG 003V008 P0000 FZRANO
PATE 141811Z AUTO 24009KT 3SM -SN BR BKN005 OVC011 M04/M04 A2947 RMK AO2 CIG 003V009 P0000 FZRANO
PATE 141756Z AUTO 23010KT 1 1/4SM -SN BR OVC005 M03/M04 A2947 RMK AO2 CIG 003V008 SLP986 P0000 60000 T10331039 11028 21033 53006 FZRANO
PATE 141743Z AUTO 21012KT 2 1/2SM -SN BR OVC005 M03/M04 A2947 RMK AO2 P0000 FZRANO
PATE 141724Z AUTO 21011KT 8SM -SN OVC005 M03/M04 A2947 RMK AO2 P0000 FZRANO
PATE 141656Z AUTO 23013KT 10SM -SN OVC003 M03/M04 A2946 RMK AO2 SNE36B53 SLP982 P0000 T10331039 FZRANO
PATE 141556Z AUTO 22013KT 8SM -SN OVC003 M03/M04 A2945 RMK AO2 SLP980 P0000 T10331039 FZRANO
PATE 141456Z AUTO 23011KT 4SM -SN BR OVC003 M03/M04 A2945 RMK AO2 SLP978 P0000 60000 T10331039 51007 FZRANO
PATE 141356Z AUTO 23012KT 4SM -SN BR OVC003 M03/M03 A2944 RMK AO2 SLP977 P0000 T10281033 FZRANO
PATE 141342Z AUTO 23014KT 4SM -SN BR OVC003 M03/M03 A2944 RMK AO2 CIG 003V008 P0000 FZRANO
PATE 141311Z AUTO 23012KT 2 1/2SM -SN BR OVC003 M03/M03 A2944 RMK AO2 P0000 FZRANO
PATE 141256Z AUTO 23014KT 4SM -SN BR OVC003 M03/M03 A2944 RMK AO2 SLP975 P0000 T10281033 FZRANO
PATE 141232Z AUTO 24013KT 5SM -SN BR BKN003 OVC011 M03/M03 A2943 RMK AO2 CIG 002V007 P0000 FZRANO
PATE 141223Z AUTO 24014KT 2SM -SN BR BKN005 OVC010 M03/M03 A2943 RMK AO2 CIG 002V009 P0000 FZRANO
PATE 141156Z AUTO 23013KT 9SM -SN BKN003 OVC009 M03/M03 A2943 RMK AO2 SLP972 P0000 60000 T10281033 11011 21028 51007 FZRANO
PATE 141146Z AUTO 24013KT 8SM -SN BKN003 OVC009 M03/M03 A2943 RMK AO2 P0000 FZRANO
PATE 141133Z AUTO 24012KT 4SM -SN BR SCT003 OVC009 M03/M03 A2942 RMK AO2 CIG 006V011 P0000 FZRANO
PATE 141125Z AUTO 24011KT 2 1/2SM -SN BR FEW003 OVC009 M03/M03 A2942 RMK AO2 VIS 2V4 CIG 006V012 P0000 FZRANO
PATE 141109Z AUTO 24012KT 4SM -SN BR SCT003 OVC009 M03/M03 A2942 RMK AO2 CIG 005V012 P0000 FZRANO
PATE 141056Z AUTO 24013KT 3SM -SN BR BKN003 OVC009 M03/M03 A2942 RMK AO2 UPE17SNB17 SLP970 P0000 T10281028 FZRANO
PATE 141051Z AUTO 24012KT 2 1/2SM -SN BR OVC003 M02/M03 A2942 RMK AO2 UPE17SNB17 P0000 FZRANO
PATE 141039Z AUTO 24013KT 3SM -SN BR OVC003 M03/M03 A2942 RMK AO2 UPE17SNB17 P0000 FZRANO
PATE 141024Z AUTO 23013KT 2SM -SN BR OVC003 M02/M03 A2942 RMK AO2 UPE17SNB17 CIG 002V007 P0000 FZRANO
PATE 140956Z AUTO 24013KT 4SM UP BR OVC003 M02/M03 A2941 RMK AO2 UPB0859SNE0859 SLP966 P0000 T10221028 FZRANO
PATE 140952Z AUTO 24015KT 3SM UP BR OVC003 M02/M03 A2941 RMK AO2 UPB0859SNE0859 P0000 FZRANO
PATE 140941Z AUTO 24015KT 1 1/2SM UP BR OVC003 M02/M03 A2941 RMK AO2 UPB0859SNE0859 P0000 FZRANO
PATE 140927Z AUTO 24013KT 2SM UP BR OVC003 M02/M03 A2940 RMK AO2 UPB0859SNE0859 P0000 FZRANO
PATE 140915Z AUTO 24013KT 1SM UP BR OVC003 M02/M02 A2940 RMK AO2 UPB0859SNE0859 P0000 FZRANO
PATE 140903Z AUTO 24012KT 3/4SM UP BR OVC003 M02/M02 A2940 RMK AO2 UPB0859SNE0859 P0000 FZRANO
PATE 140856Z AUTO 24011KT 1/2SM -SN FZFG OVC003 M02/M02 A2940 RMK AO2 UPB05E08SNE05B08 SLP962 P0000 60000 T10171022 53008 FZRANO
PATE 140845Z AUTO 24011KT 3/4SM -SN BR OVC003 M02/M02 A2940 RMK AO2 UPB05E08SNE05B08 P0000 FZRANO
PATE 140825Z AUTO 24011KT 1/2SM -SN FZFG OVC003 M02/M02 A2939 RMK AO2 UPB05E08SNE05B08 P0000 FZRANO
PATE 140811Z AUTO 24013KT 3/4SM -SN BR OVC003 M02/M02 A2939 RMK AO2 UPB05E08SNE05B08 P0000 FZRANO